createdAt,value
2022-08-20T00:02:10.634Z,14.30
2022-08-20T00:04:39.509Z,14.30
2022-08-20T00:07:07.348Z,14.20
2022-08-20T00:09:36.754Z,14.20
2022-08-20T00:12:07.900Z,14.20
2022-08-20T00:14:35.569Z,14.20
2022-08-20T00:17:03.938Z,14.20
2022-08-20T00:19:31.624Z,14.20
2022-08-20T00:21:58.996Z,14.20
2022-08-20T00:24:26.519Z,14.20
2022-08-20T00:26:53.888Z,14.20
2022-08-20T00:29:22.407Z,14.10
2022-08-20T00:31:50.559Z,14.20
2022-08-20T00:34:18.252Z,14.10
2022-08-20T00:36:45.721Z,14.10
2022-08-20T00:39:13.093Z,14.10
2022-08-20T00:41:40.552Z,14.10
2022-08-20T00:44:14.227Z,14.10
2022-08-20T00:46:42.484Z,14.10
2022-08-20T00:49:14.182Z,14.00
2022-08-20T00:51:43.794Z,14.00
2022-08-20T00:54:14.981Z,15.90
2022-08-20T00:56:44.041Z,14.00
2022-08-20T00:59:15.596Z,14.00
2022-08-20T01:01:55.145Z,13.90
2022-08-20T01:04:25.020Z,14.00
2022-08-20T01:06:52.351Z,13.90
2022-08-20T01:09:50.055Z,13.90
2022-08-20T01:12:07.979Z,13.90
2022-08-20T01:14:35.358Z,13.90
2022-08-20T01:17:05.175Z,13.90
2022-08-20T01:19:35.835Z,13.90
2022-08-20T01:22:23.809Z,13.80
2022-08-20T01:24:54.041Z,13.80
2022-08-20T01:27:22.764Z,13.80
2022-08-20T01:29:52.061Z,13.70
2022-08-20T01:32:19.493Z,13.70
2022-08-20T01:34:46.943Z,13.70
2022-08-20T01:37:14.299Z,13.60
2022-08-20T01:39:41.748Z,13.60
2022-08-20T01:42:20.411Z,13.60
2022-08-20T01:44:47.802Z,13.60
2022-08-20T01:47:17.508Z,13.50
2022-08-20T01:49:47.025Z,13.50
2022-08-20T01:52:17.895Z,13.50
2022-08-20T01:54:46.657Z,13.50
2022-08-20T01:57:15.599Z,13.50
2022-08-20T01:59:43.236Z,13.40
2022-08-20T02:02:11.574Z,13.40
2022-08-20T02:04:40.259Z,13.40
2022-08-20T02:07:12.386Z,13.40
2022-08-20T02:09:40.028Z,13.40
2022-08-20T02:12:08.814Z,13.40
2022-08-20T02:14:39.653Z,13.30
2022-08-20T02:17:07.079Z,13.30
2022-08-20T02:19:49.027Z,13.20
2022-08-20T02:22:29.331Z,13.20
2022-08-20T02:24:57.195Z,13.20
2022-08-20T02:27:24.598Z,13.20
2022-08-20T02:29:52.900Z,13.20
2022-08-20T02:32:32.238Z,13.20
2022-08-20T02:35:03.781Z,13.10
2022-08-20T02:37:31.270Z,13.10
2022-08-20T02:39:59.138Z,13.10
2022-08-20T02:42:26.747Z,13.10
2022-08-20T02:44:54.383Z,13.00
2022-08-20T02:47:21.856Z,13.00
2022-08-20T02:49:49.525Z,13.00
2022-08-20T02:52:16.928Z,13.00
2022-08-20T02:54:44.640Z,13.00
2022-08-20T02:57:15.981Z,13.00
2022-08-20T02:59:44.608Z,13.00
2022-08-20T03:02:12.090Z,13.00
2022-08-20T03:04:39.537Z,13.00
2022-08-20T03:07:07.426Z,13.00
2022-08-20T03:09:34.796Z,13.00
2022-08-20T03:12:02.893Z,13.00
2022-08-20T03:14:30.424Z,12.90
2022-08-20T03:16:57.744Z,12.90
2022-08-20T03:19:25.305Z,12.90
2022-08-20T03:21:52.789Z,12.90
2022-08-20T03:24:20.214Z,12.80
2022-08-20T03:26:47.721Z,12.80
2022-08-20T03:29:15.097Z,12.80
2022-08-20T03:31:42.460Z,12.80
2022-08-20T03:34:09.866Z,12.60
2022-08-20T03:36:37.219Z,12.80
2022-08-20T03:39:06.091Z,12.80
2022-08-20T03:41:33.415Z,12.80
2022-08-20T03:44:00.741Z,12.80
2022-08-20T03:46:28.835Z,12.80
2022-08-20T03:48:56.643Z,12.90
2022-08-20T03:51:31.598Z,12.90
2022-08-20T03:54:10.895Z,12.90
2022-08-20T03:56:38.325Z,13.00
2022-08-20T03:59:05.725Z,13.00
2022-08-20T04:01:44.819Z,13.10
2022-08-20T04:04:14.616Z,13.10
2022-08-20T04:06:42.648Z,13.20
2022-08-20T04:09:11.960Z,13.20
2022-08-20T04:11:40.447Z,13.30
2022-08-20T04:14:07.899Z,13.40
2022-08-20T04:16:37.805Z,13.30
2022-08-20T04:19:05.186Z,13.40
2022-08-20T04:21:33.581Z,13.40
2022-08-20T04:24:02.481Z,13.40
2022-08-20T04:26:30.367Z,13.40
2022-08-20T04:28:58.141Z,13.40
2022-08-20T04:31:25.763Z,13.50
2022-08-20T04:33:53.139Z,13.50
2022-08-20T04:36:20.481Z,13.60
2022-08-20T04:38:50.236Z,13.60
2022-08-20T04:41:22.735Z,13.70
2022-08-20T04:43:53.109Z,13.70
2022-08-20T04:46:21.014Z,13.80
2022-08-20T04:48:48.860Z,13.90
2022-08-20T04:51:18.681Z,13.90
2022-08-20T04:53:52.287Z,14.00
2022-08-20T04:56:23.865Z,14.00
2022-08-20T04:58:52.554Z,14.10
2022-08-20T05:01:20.414Z,14.10
2022-08-20T05:03:48.094Z,14.20
2022-08-20T05:06:17.498Z,14.20
2022-08-20T05:08:45.028Z,14.30
2022-08-20T05:11:34.221Z,14.40
2022-08-20T05:14:00.117Z,14.40
2022-08-20T05:16:27.585Z,14.40
2022-08-20T05:18:54.945Z,14.50
2022-08-20T05:21:22.314Z,14.50
2022-08-20T05:23:49.802Z,14.50
2022-08-20T05:26:20.252Z,14.60
2022-08-20T05:28:58.637Z,14.60
2022-08-20T05:31:31.224Z,14.60
2022-08-20T05:34:01.640Z,14.70
2022-08-20T05:36:29.032Z,14.70
2022-08-20T05:38:56.941Z,14.70
2022-08-20T05:41:29.358Z,14.70
2022-08-20T05:44:00.833Z,14.70
2022-08-20T05:46:29.288Z,14.70
2022-08-20T05:48:59.767Z,14.80
2022-08-20T05:51:28.297Z,14.80
2022-08-20T05:53:59.150Z,14.80
2022-08-20T05:56:30.651Z,14.80
2022-08-20T05:59:04.406Z,14.80
2022-08-20T06:01:32.853Z,14.80
2022-08-20T06:04:19.019Z,14.80
2022-08-20T06:06:47.332Z,14.80
2022-08-20T06:09:16.218Z,14.80
2022-08-20T06:11:43.645Z,14.80
2022-08-20T06:14:11.075Z,14.80
2022-08-20T06:16:38.590Z,14.90
2022-08-20T06:19:06.815Z,14.80
2022-08-20T06:21:39.813Z,14.90
2022-08-20T06:24:08.136Z,14.90
2022-08-20T06:26:36.031Z,14.90
2022-08-20T06:29:04.614Z,14.90
2022-08-20T06:31:32.722Z,14.90
2022-08-20T06:34:00.081Z,14.90
2022-08-20T06:36:27.745Z,14.90
2022-08-20T06:38:56.170Z,14.90
2022-08-20T06:41:23.521Z,14.90
2022-08-20T06:44:04.212Z,14.90
2022-08-20T06:46:32.265Z,14.90
2022-08-20T06:48:59.819Z,15.00
2022-08-20T06:51:27.202Z,15.00
2022-08-20T06:53:54.753Z,15.00
2022-08-20T06:56:22.154Z,15.10
2022-08-20T06:58:49.638Z,15.20
2022-08-20T07:01:26.041Z,15.40
2022-08-20T07:03:54.906Z,15.50
2022-08-20T07:06:27.178Z,15.70
2022-08-20T07:08:55.831Z,15.80
2022-08-20T07:11:27.763Z,15.90
2022-08-20T07:13:56.934Z,16.00
2022-08-20T07:16:24.655Z,16.00
2022-08-20T07:18:52.142Z,16.10
2022-08-20T07:21:19.492Z,16.20
2022-08-20T07:23:48.927Z,16.30
2022-08-20T07:26:16.762Z,16.50
2022-08-20T07:28:44.160Z,16.60
2022-08-20T07:31:31.281Z,16.60
2022-08-20T07:33:59.777Z,16.70
2022-08-20T07:36:28.214Z,16.80
2022-08-20T07:38:57.010Z,16.80
2022-08-20T07:41:24.548Z,16.90
2022-08-20T07:43:51.999Z,16.90
2022-08-20T07:46:20.789Z,17.00
2022-08-20T07:48:50.231Z,17.00
2022-08-20T07:51:19.455Z,17.10
2022-08-20T07:53:47.423Z,17.10
2022-08-20T07:56:17.166Z,17.20
2022-08-20T07:58:50.281Z,17.20
2022-08-20T08:01:25.613Z,17.30
2022-08-20T08:03:53.293Z,17.40
2022-08-20T08:06:29.082Z,17.40
2022-08-20T08:09:04.244Z,17.40
2022-08-20T08:11:33.416Z,17.40
2022-08-20T08:14:01.189Z,17.50
2022-08-20T08:16:29.095Z,17.50
2022-08-20T08:18:56.939Z,17.60
2022-08-20T08:21:25.134Z,17.60
2022-08-20T08:23:53.551Z,17.70
2022-08-20T08:26:21.821Z,17.70
2022-08-20T08:28:49.167Z,17.70
2022-08-20T08:31:16.609Z,17.80
2022-08-20T08:33:44.113Z,17.90
2022-08-20T08:36:12.596Z,17.90
2022-08-20T08:38:40.610Z,18.00
2022-08-20T08:41:13.958Z,18.10
2022-08-20T08:43:42.349Z,18.20
2022-08-20T08:46:11.330Z,18.20
2022-08-20T08:48:43.412Z,18.20
2022-08-20T08:51:12.552Z,18.20
2022-08-20T08:53:59.116Z,18.20
2022-08-20T08:56:29.767Z,18.30
2022-08-20T08:59:08.632Z,18.40
2022-08-20T09:01:56.856Z,18.50
2022-08-20T09:04:30.435Z,18.50
2022-08-20T09:06:58.763Z,18.70
2022-08-20T09:09:28.053Z,18.70
2022-08-20T09:11:56.571Z,18.80
2022-08-20T09:14:26.549Z,18.80
2022-08-20T09:16:54.080Z,18.90
2022-08-20T09:19:21.653Z,19.00
2022-08-20T09:21:49.446Z,19.10
2022-08-20T09:24:16.855Z,19.10
2022-08-20T09:26:44.455Z,19.30
2022-08-20T09:29:11.830Z,19.40
2022-08-20T09:31:40.033Z,19.50
2022-08-20T09:34:07.891Z,19.60
2022-08-20T09:36:35.454Z,19.60
2022-08-20T09:39:03.355Z,19.60
2022-08-20T09:41:34.255Z,19.70
2022-08-20T09:44:02.294Z,19.70
2022-08-20T09:46:29.810Z,19.70
2022-08-20T09:48:57.327Z,19.70
2022-08-20T09:51:24.873Z,19.60
2022-08-20T09:53:52.938Z,19.50
2022-08-20T09:56:20.335Z,19.40
2022-08-20T09:58:49.886Z,19.40
2022-08-20T10:01:18.976Z,19.50
2022-08-20T10:03:50.494Z,19.70
2022-08-20T10:06:19.848Z,19.90
2022-08-20T10:08:48.365Z,20.00
2022-08-20T10:11:16.017Z,20.20
2022-08-20T10:13:45.754Z,20.20
2022-08-20T10:16:13.368Z,20.40
2022-08-20T10:18:40.741Z,20.50
2022-08-20T10:21:12.168Z,20.70
2022-08-20T10:23:39.633Z,20.80
2022-08-20T10:26:07.719Z,20.90
2022-08-20T10:28:35.569Z,20.90
2022-08-20T10:31:05.393Z,20.80
2022-08-20T10:33:32.782Z,20.80
2022-08-20T10:36:06.235Z,20.70
2022-08-20T10:38:33.851Z,20.90
2022-08-20T10:41:01.220Z,20.90
2022-08-20T10:43:28.757Z,20.90
2022-08-20T10:45:56.086Z,20.80
2022-08-20T10:48:23.865Z,20.80
2022-08-20T10:50:51.211Z,21.00
2022-08-20T10:53:18.771Z,21.10
2022-08-20T10:55:46.592Z,21.20
2022-08-20T10:58:14.140Z,21.40
2022-08-20T11:00:41.806Z,21.70
2022-08-20T11:03:09.177Z,21.80
2022-08-20T11:05:36.616Z,21.90
2022-08-20T11:08:05.073Z,22.00
2022-08-20T11:10:34.079Z,21.90
2022-08-20T11:13:02.251Z,21.70
2022-08-20T11:15:29.891Z,21.60
2022-08-20T11:17:57.765Z,21.60
2022-08-20T11:20:26.392Z,21.70
2022-08-20T11:22:54.506Z,21.90
2022-08-20T11:25:22.112Z,22.10
2022-08-20T11:27:50.404Z,22.10
2022-08-20T11:30:24.653Z,22.40
2022-08-20T11:32:52.203Z,22.60
2022-08-20T11:38:09.249Z,23.00
2022-08-20T11:40:36.593Z,23.00
2022-08-20T11:43:14.661Z,22.90
2022-08-20T11:45:43.803Z,22.90
2022-08-20T11:48:11.180Z,22.80
2022-08-20T11:50:38.668Z,22.80
2022-08-20T11:53:06.125Z,22.70
2022-08-20T11:55:36.110Z,22.70
2022-08-20T11:58:04.282Z,22.70
2022-08-20T12:00:33.944Z,22.70
2022-08-20T12:03:04.825Z,22.60
2022-08-20T12:05:32.779Z,22.80
2022-08-20T12:08:00.971Z,22.70
2022-08-20T12:10:29.210Z,22.90
2022-08-20T12:12:57.101Z,23.20
2022-08-20T12:15:26.766Z,23.50
2022-08-20T12:17:55.144Z,23.60
2022-08-20T12:20:22.934Z,23.60
2022-08-20T12:22:50.335Z,23.40
2022-08-20T12:25:17.878Z,23.20
2022-08-20T12:27:45.469Z,23.30
2022-08-20T12:30:17.638Z,23.50
2022-08-20T12:32:45.100Z,23.70
2022-08-20T12:35:13.494Z,24.10
2022-08-20T12:37:41.297Z,24.50
2022-08-20T12:40:10.980Z,24.90
2022-08-20T12:42:38.589Z,25.30
2022-08-20T12:45:06.554Z,25.70
2022-08-20T12:47:35.535Z,25.80
2022-08-20T12:50:05.346Z,26.00
2022-08-20T12:52:32.812Z,26.00
2022-08-20T12:55:00.583Z,25.90
2022-08-20T12:57:29.565Z,26.00
2022-08-20T12:59:59.105Z,26.10
2022-08-20T13:02:26.700Z,26.30
2022-08-20T13:04:54.468Z,26.50
2022-08-20T13:07:23.091Z,26.70
2022-08-20T13:09:51.032Z,26.70
2022-08-20T13:12:18.504Z,26.70
2022-08-20T13:14:45.840Z,26.50
2022-08-20T13:17:16.833Z,26.10
2022-08-20T13:19:45.809Z,26.10
2022-08-20T13:22:13.871Z,26.40
2022-08-20T13:24:41.969Z,26.90
2022-08-20T13:27:13.527Z,27.00
2022-08-20T13:29:48.325Z,27.20
2022-08-20T13:32:15.871Z,27.20
2022-08-20T13:34:43.309Z,27.30
2022-08-20T13:37:14.760Z,27.60
2022-08-20T13:39:42.567Z,27.60
2022-08-20T13:42:10.325Z,27.70
2022-08-20T13:44:38.160Z,27.80
2022-08-20T13:47:19.254Z,27.80
2022-08-20T13:49:47.432Z,27.80
2022-08-20T13:52:16.869Z,28.00
2022-08-20T13:54:44.493Z,28.10
2022-08-20T13:57:13.487Z,28.00
2022-08-20T13:59:42.088Z,27.80
2022-08-20T14:02:11.287Z,27.70
2022-08-20T14:04:38.894Z,27.90
2022-08-20T14:07:31.477Z,27.90
2022-08-20T14:10:06.292Z,27.80
2022-08-20T14:12:34.284Z,27.30
2022-08-20T14:15:01.717Z,27.30
2022-08-20T14:17:30.530Z,27.40
2022-08-20T14:20:02.283Z,27.60
2022-08-20T14:22:30.754Z,27.90
2022-08-20T14:25:02.543Z,28.00
2022-08-20T14:27:31.531Z,27.70
2022-08-20T14:29:59.271Z,27.40
2022-08-20T14:32:26.931Z,26.90
2022-08-20T14:34:54.662Z,26.50
2022-08-20T14:37:23.740Z,26.30
2022-08-20T14:39:52.285Z,26.30
2022-08-20T14:42:22.839Z,26.60
2022-08-20T14:44:50.903Z,26.70
2022-08-20T14:47:20.081Z,26.90
2022-08-20T14:49:48.052Z,27.30
2022-08-20T14:52:16.635Z,27.50
2022-08-20T14:54:44.426Z,27.60
2022-08-20T14:57:13.368Z,27.80
2022-08-20T14:59:41.663Z,27.60
2022-08-20T15:02:09.905Z,27.30
2022-08-20T15:04:37.300Z,26.90
2022-08-20T15:07:08.087Z,26.50
2022-08-20T15:09:40.609Z,26.00
2022-08-20T15:12:08.062Z,26.00
2022-08-20T15:14:35.603Z,26.30
2022-08-20T15:17:06.792Z,26.40
2022-08-20T15:19:35.803Z,26.60
2022-08-20T15:22:03.473Z,26.50
2022-08-20T15:24:30.789Z,26.20
2022-08-20T15:26:58.389Z,25.70
2022-08-20T15:29:25.878Z,25.20
2022-08-20T15:31:53.291Z,24.90
2022-08-20T15:34:20.737Z,24.60
2022-08-20T15:36:48.096Z,24.40
2022-08-20T15:39:15.526Z,24.10
2022-08-20T15:41:42.964Z,23.90
2022-08-20T15:44:10.412Z,23.70
2022-08-20T15:46:39.698Z,23.50
2022-08-20T15:49:11.483Z,23.40
2022-08-20T15:51:43.072Z,23.30
2022-08-20T15:54:30.750Z,23.20
2022-08-20T15:56:58.889Z,23.10
2022-08-20T15:59:45.081Z,23.00
2022-08-20T16:02:25.900Z,23.20
2022-08-20T16:04:56.789Z,23.20
2022-08-20T16:08:00.935Z,23.10
2022-08-20T16:10:37.489Z,23.20
2022-08-20T16:13:09.585Z,23.00
2022-08-20T16:15:39.715Z,22.90
2022-08-20T16:18:24.370Z,22.70
2022-08-20T16:20:53.712Z,22.60
2022-08-20T16:23:26.944Z,22.60
2022-08-20T16:25:57.066Z,22.60
2022-08-20T16:28:26.352Z,22.50
2022-08-20T16:31:02.723Z,22.50
2022-08-20T16:33:30.198Z,22.50
2022-08-20T16:36:11.272Z,22.50
2022-08-20T16:38:56.809Z,22.70
2022-08-20T16:41:47.590Z,22.80
2022-08-20T16:44:21.091Z,22.90
2022-08-20T16:46:54.472Z,22.80
2022-08-20T16:49:22.282Z,22.70
2022-08-20T16:51:52.156Z,22.60
2022-08-20T16:54:28.297Z,22.50
2022-08-20T16:57:00.411Z,22.50
2022-08-20T16:59:28.323Z,22.50
2022-08-20T17:02:01.782Z,22.60
2022-08-20T17:04:36.819Z,22.60
2022-08-20T17:07:04.730Z,22.50
2022-08-20T17:09:43.856Z,22.40
2022-08-20T17:12:22.445Z,22.40
2022-08-20T17:14:52.598Z,22.40
2022-08-20T17:17:25.116Z,22.40
2022-08-20T17:19:57.099Z,22.40
2022-08-20T17:22:25.973Z,22.20
2022-08-20T17:24:53.436Z,22.10
2022-08-20T17:27:32.994Z,22.00
2022-08-20T17:30:22.725Z,21.90
2022-08-20T17:32:57.826Z,21.70
2022-08-20T17:35:40.172Z,21.60
2022-08-20T17:38:10.169Z,21.40
2022-08-20T17:40:47.145Z,21.30
2022-08-20T17:43:28.729Z,21.30
2022-08-20T17:45:58.122Z,21.30
2022-08-20T17:48:33.486Z,21.40
2022-08-20T17:51:05.842Z,21.40
2022-08-20T17:53:35.904Z,21.30
2022-08-20T17:56:13.062Z,21.30
2022-08-20T17:58:52.548Z,21.30
2022-08-20T18:01:23.103Z,21.20
2022-08-20T18:03:51.361Z,21.10
2022-08-20T18:06:34.213Z,21.10
2022-08-20T18:09:10.202Z,21.00
2022-08-20T18:11:52.880Z,21.00
2022-08-20T18:14:29.310Z,20.90
2022-08-20T18:17:08.857Z,20.80
2022-08-20T18:19:54.537Z,20.60
2022-08-20T18:22:27.998Z,20.60
2022-08-20T18:25:07.518Z,20.40
2022-08-20T18:27:42.537Z,20.30
2022-08-20T18:30:21.451Z,20.30
2022-08-20T18:32:50.843Z,20.30
2022-08-20T18:35:33.775Z,20.30
2022-08-20T18:38:26.236Z,20.30
2022-08-20T18:40:55.352Z,20.30
2022-08-20T18:43:26.919Z,20.30
2022-08-20T18:45:54.358Z,20.20
2022-08-20T18:48:23.472Z,20.20
2022-08-20T18:50:55.008Z,20.10
2022-08-20T18:53:30.323Z,20.10
2022-08-20T18:56:13.727Z,19.90
2022-08-20T18:59:02.077Z,19.90
2022-08-20T19:01:31.886Z,19.80
2022-08-20T19:03:59.381Z,19.70
2022-08-20T19:06:26.737Z,19.60
2022-08-20T19:09:06.355Z,19.50
2022-08-20T19:11:45.808Z,19.40
2022-08-20T19:14:19.435Z,20.50
2022-08-20T19:16:57.162Z,19.30
2022-08-20T19:19:28.493Z,19.20
2022-08-20T19:21:59.950Z,19.10
2022-08-20T19:24:32.696Z,19.00
2022-08-20T19:27:02.370Z,18.90
2022-08-20T19:29:32.090Z,18.80
2022-08-20T19:32:00.949Z,18.80
2022-08-20T19:34:28.803Z,18.60
2022-08-20T19:37:10.041Z,18.60
2022-08-20T19:39:50.778Z,18.50
2022-08-20T19:42:29.146Z,18.50
2022-08-20T19:44:58.584Z,18.40
2022-08-20T19:47:29.150Z,18.40
2022-08-20T19:49:56.518Z,18.30
2022-08-20T19:52:29.983Z,18.30
2022-08-20T19:55:02.874Z,18.30
2022-08-20T19:57:31.410Z,18.30
2022-08-20T19:59:58.789Z,18.30
2022-08-20T20:02:28.490Z,18.30
2022-08-20T20:04:58.102Z,18.30
2022-08-20T20:07:35.461Z,18.30
2022-08-20T20:10:05.073Z,18.30
2022-08-20T20:12:33.451Z,18.30
2022-08-20T20:15:01.131Z,18.30
2022-08-20T20:17:34.049Z,18.30
2022-08-20T20:20:14.356Z,18.30
2022-08-20T20:22:50.468Z,18.30
2022-08-20T20:25:18.245Z,18.30
2022-08-20T20:27:48.678Z,18.30
2022-08-20T20:30:20.631Z,18.20
2022-08-20T20:32:49.290Z,18.20
2022-08-20T20:35:25.831Z,18.20
2022-08-20T20:37:58.600Z,18.30
2022-08-20T20:40:27.971Z,18.20
2022-08-20T20:43:06.280Z,18.10
2022-08-20T20:45:38.147Z,18.10
2022-08-20T20:48:19.625Z,18.10
2022-08-20T20:50:47.967Z,18.00
2022-08-20T20:53:40.287Z,18.00
2022-08-20T20:56:25.115Z,17.90
2022-08-20T20:58:55.562Z,17.90
2022-08-20T21:01:27.240Z,18.30
2022-08-20T21:04:11.292Z,17.80
2022-08-20T21:06:39.004Z,17.70
2022-08-20T21:09:06.417Z,17.70
2022-08-20T21:11:33.851Z,17.60
2022-08-20T21:14:01.335Z,17.60
2022-08-20T21:16:29.632Z,17.50
2022-08-20T21:18:58.459Z,17.40
2022-08-20T21:21:25.806Z,17.40
2022-08-20T21:23:53.267Z,17.40
2022-08-20T21:26:20.638Z,17.30
2022-08-20T21:28:48.019Z,17.30
2022-08-20T21:31:15.451Z,17.30
2022-08-20T21:33:43.532Z,17.20
2022-08-20T21:36:10.923Z,17.20
2022-08-20T21:38:38.309Z,17.20
2022-08-20T21:41:05.801Z,17.20
2022-08-20T21:43:33.647Z,17.10
2022-08-20T21:46:03.139Z,17.10
2022-08-20T21:48:30.727Z,17.00
2022-08-20T21:50:58.121Z,17.00
2022-08-20T21:53:25.530Z,17.00
2022-08-20T21:55:53.130Z,17.10
2022-08-20T21:58:20.905Z,17.00
2022-08-20T22:00:52.278Z,17.00
2022-08-20T22:03:20.352Z,17.00
2022-08-20T22:05:47.721Z,16.90
2022-08-20T22:08:15.721Z,16.90
2022-08-20T22:10:43.119Z,16.80
2022-08-20T22:13:10.724Z,16.80
2022-08-20T22:15:39.098Z,16.80
2022-08-20T22:18:06.621Z,16.70
2022-08-20T22:20:34.215Z,16.70
2022-08-20T22:23:03.374Z,16.60
2022-08-20T22:25:31.113Z,16.60
2022-08-20T22:27:58.531Z,16.60
2022-08-20T22:30:26.781Z,16.60
2022-08-20T22:33:02.225Z,16.60
2022-08-20T22:35:30.796Z,16.50
2022-08-20T22:37:58.373Z,16.50
2022-08-20T22:40:25.857Z,16.50
2022-08-20T22:42:53.234Z,16.40
2022-08-20T22:45:20.657Z,16.40
2022-08-20T22:47:48.132Z,16.30
2022-08-20T22:50:16.249Z,16.30
2022-08-20T22:52:45.319Z,16.30
2022-08-20T22:55:13.083Z,16.20
2022-08-20T22:57:40.564Z,16.20
2022-08-20T23:00:11.450Z,16.10
2022-08-20T23:02:40.084Z,16.10
2022-08-20T23:05:08.395Z,16.00
2022-08-20T23:07:35.811Z,16.00
2022-08-20T23:10:03.990Z,15.90
2022-08-20T23:12:31.366Z,15.90
2022-08-20T23:14:58.713Z,15.90
2022-08-20T23:17:26.640Z,15.90
2022-08-20T23:19:54.302Z,15.80
2022-08-20T23:22:22.455Z,15.80
2022-08-20T23:24:50.049Z,15.70
2022-08-20T23:27:18.667Z,15.70
2022-08-20T23:29:46.440Z,15.70
2022-08-20T23:32:14.037Z,15.70
2022-08-20T23:34:41.462Z,15.70
2022-08-20T23:37:09.145Z,15.60
2022-08-20T23:39:37.354Z,15.60
2022-08-20T23:42:04.839Z,15.60
2022-08-20T23:44:32.186Z,15.60
2022-08-20T23:47:01.952Z,15.60
2022-08-20T23:49:29.968Z,15.50
2022-08-20T23:52:00.094Z,15.50
2022-08-20T23:54:28.051Z,15.50
2022-08-20T23:56:57.034Z,15.50
2022-08-20T23:59:25.359Z,15.40
